INFORMACIÓN METAR y TAF
METAR FOR DTTJ
ADDS - METARS form results

(2150 UTC 02 June 2020)
Data provider http://aviationweather.gov/metar/data/
 
METAR text: DTTJ 022130Z 15004KT 9999 FEW020 20/15 Q1014 NOSIG
Conditions at: DTTJ (DJERBA MELLITA , TN) observed 2130 UTC 02 June 2020
Temperature: 20.0°C (68°F)
Dewpoint: 15.0°C (59°F) [RH = 73%]
Pressure (altimeter): 29.94 inches Hg (1014.0 mb)
Winds: from the SSE (150 degrees) at 5 MPH (4 knots; 2.1 m/s)
Visibility: 6 or more miles (10+ km)
Ceiling: at least 12,000 feet AGL
Clouds: few clouds at 2000 feet AGL
Weather: no significant weather observed at this time

METAR text: DTTJ 022100Z 13005KT 9999 FEW020 20/15 Q1014 NOSIG
Conditions at: DTTJ (DJERBA MELLITA , TN) observed 2100 UTC 02 June 2020
Temperature: 20.0°C (68°F)
Dewpoint: 15.0°C (59°F) [RH = 73%]
Pressure (altimeter): 29.94 inches Hg (1014.0 mb)
Winds: from the SE (130 degrees) at 6 MPH (5 knots; 2.6 m/s)
Visibility: 6 or more miles (10+ km)
Ceiling: at least 12,000 feet AGL
Clouds: few clouds at 2000 feet AGL
Weather: no significant weather observed at this time

Forecast for: DTTJ (DJERBA MELLITA , TN)
Text: TAF DTTJ 021700Z 0218/0318 07010KT 8000 FEW020
Forecast period: 1800 UTC 02 June 2020 to 1800 UTC 03 June 2020
Forecast type: FROM: standard forecast or significant change
Winds: from the ENE (70 degrees) at 12 MPH (10 knots; 5.1 m/s)
Visibility: 5 miles (8 km)
Ceiling: at least 12,000 feet AGL
Clouds: few clouds at 2000 feet AGL
Weather: no significant weather forecast for this period

MAPA DE AEROPUERTO

INFORMACIÓN DE PISTA
Pista 09 Longitud 10171 ft Ancho 148 ft
Elevación 9 ft Umbral desplazado 0 ft Rumbo de pista 88
Pista 27 Longitud 10171 ft Ancho 148 ft
Elevación 18 ft Umbral desplazado 0 ft Rumbo de pista 268

FRECUANCIAS DEL AEROPUERTO
Tipo APP Nombre DJERBA APP Frecuencia 120.3 MHZ
Tipo TWR Nombre DJERBA TWR Frecuencia 118.15 MHZ

RADIO AYUDAS DEL AEROPUERTO
Tipo VOR-DME Nombre Djerba Frecuencia 112200 KHZ